sensor_id;sensor_type;location;lat;lon;timestamp;P1;durP1;ratioP1;P2;durP2;ratioP2
5995;SDS011;3026;53.612;7.278;2023-02-28T00:00:07;5.13;;;1.50;;
5995;SDS011;3026;53.612;7.278;2023-02-28T00:02:35;3.80;;;1.30;;
5995;SDS011;3026;53.612;7.278;2023-02-28T00:05:03;6.30;;;1.60;;
5995;SDS011;3026;53.612;7.278;2023-02-28T00:07:31;6.40;;;1.30;;
5995;SDS011;3026;53.612;7.278;2023-02-28T00:09:58;2.67;;;1.37;;
5995;SDS011;3026;53.612;7.278;2023-02-28T00:12:25;3.93;;;1.23;;
5995;SDS011;3026;53.612;7.278;2023-02-28T00:14:54;3.37;;;1.80;;
5995;SDS011;3026;53.612;7.278;2023-02-28T00:17:21;4.77;;;1.80;;
5995;SDS011;3026;53.612;7.278;2023-02-28T00:19:49;3.70;;;1.80;;
5995;SDS011;3026;53.612;7.278;2023-02-28T00:22:17;2.70;;;1.30;;
5995;SDS011;3026;53.612;7.278;2023-02-28T00:24:45;6.63;;;1.73;;
5995;SDS011;3026;53.612;7.278;2023-02-28T00:27:12;5.27;;;2.13;;
5995;SDS011;3026;53.612;7.278;2023-02-28T00:29:40;4.93;;;2.40;;
5995;SDS011;3026;53.612;7.278;2023-02-28T00:32:08;6.27;;;1.90;;
5995;SDS011;3026;53.612;7.278;2023-02-28T00:34:35;5.77;;;1.67;;
5995;SDS011;3026;53.612;7.278;2023-02-28T00:37:03;3.57;;;1.90;;
5995;SDS011;3026;53.612;7.278;2023-02-28T00:39:32;6.93;;;2.23;;
5995;SDS011;3026;53.612;7.278;2023-02-28T00:42:00;7.13;;;2.40;;
5995;SDS011;3026;53.612;7.278;2023-02-28T00:44:28;7.03;;;2.30;;
5995;SDS011;3026;53.612;7.278;2023-02-28T00:46:55;8.27;;;1.97;;
5995;SDS011;3026;53.612;7.278;2023-02-28T00:49:23;5.77;;;2.00;;
5995;SDS011;3026;53.612;7.278;2023-02-28T00:51:51;5.00;;;2.43;;
5995;SDS011;3026;53.612;7.278;2023-02-28T00:54:19;7.17;;;2.10;;
5995;SDS011;3026;53.612;7.278;2023-02-28T00:56:46;6.73;;;2.53;;
5995;SDS011;3026;53.612;7.278;2023-02-28T00:59:13;4.43;;;2.03;;
5995;SDS011;3026;53.612;7.278;2023-02-28T01:01:41;5.97;;;2.17;;
5995;SDS011;3026;53.612;7.278;2023-02-28T01:04:08;6.67;;;2.90;;
5995;SDS011;3026;53.612;7.278;2023-02-28T01:06:36;5.40;;;2.23;;
5995;SDS011;3026;53.612;7.278;2023-02-28T01:09:04;2.53;;;1.90;;
5995;SDS011;3026;53.612;7.278;2023-02-28T01:11:32;6.63;;;1.70;;
5995;SDS011;3026;53.612;7.278;2023-02-28T01:13:59;6.17;;;1.90;;
5995;SDS011;3026;53.612;7.278;2023-02-28T01:16:27;3.70;;;1.70;;
5995;SDS011;3026;53.612;7.278;2023-02-28T01:18:54;7.63;;;2.13;;
5995;SDS011;3026;53.612;7.278;2023-02-28T01:21:21;7.30;;;1.90;;
5995;SDS011;3026;53.612;7.278;2023-02-28T01:23:50;5.63;;;1.93;;
5995;SDS011;3026;53.612;7.278;2023-02-28T01:26:19;3.70;;;2.07;;
5995;SDS011;3026;53.612;7.278;2023-02-28T01:28:47;6.77;;;1.70;;
5995;SDS011;3026;53.612;7.278;2023-02-28T01:31:15;5.57;;;2.13;;
5995;SDS011;3026;53.612;7.278;2023-02-28T01:33:43;5.67;;;1.83;;
5995;SDS011;3026;53.612;7.278;2023-02-28T01:36:12;3.30;;;1.60;;
5995;SDS011;3026;53.612;7.278;2023-02-28T01:38:40;4.60;;;2.10;;
5995;SDS011;3026;53.612;7.278;2023-02-28T01:41:08;8.23;;;1.90;;
5995;SDS011;3026;53.612;7.278;2023-02-28T01:43:57;3.07;;;1.40;;
5995;SDS011;3026;53.612;7.278;2023-02-28T01:46:28;4.87;;;1.83;;
5995;SDS011;3026;53.612;7.278;2023-02-28T01:48:58;2.27;;;1.60;;
5995;SDS011;3026;53.612;7.278;2023-02-28T01:51:35;4.43;;;1.63;;
5995;SDS011;3026;53.612;7.278;2023-02-28T01:54:12;4.63;;;1.70;;
5995;SDS011;3026;53.612;7.278;2023-02-28T01:56:45;5.20;;;1.80;;
5995;SDS011;3026;53.612;7.278;2023-02-28T01:59:17;3.90;;;1.53;;
5995;SDS011;3026;53.612;7.278;2023-02-28T02:01:48;3.77;;;1.30;;
5995;SDS011;3026;53.612;7.278;2023-02-28T02:04:15;3.00;;;1.63;;
5995;SDS011;3026;53.612;7.278;2023-02-28T02:06:43;3.67;;;1.87;;
5995;SDS011;3026;53.612;7.278;2023-02-28T02:09:12;10.93;;;2.03;;
5995;SDS011;3026;53.612;7.278;2023-02-28T02:11:39;5.23;;;1.60;;
5995;SDS011;3026;53.612;7.278;2023-02-28T02:14:21;2.73;;;1.77;;
5995;SDS011;3026;53.612;7.278;2023-02-28T02:17:11;4.43;;;1.50;;
5995;SDS011;3026;53.612;7.278;2023-02-28T02:25:52;4.00;;;1.47;;
5995;SDS011;3026;53.612;7.278;2023-02-28T02:28:29;4.50;;;1.50;;
5995;SDS011;3026;53.612;7.278;2023-02-28T02:31:24;6.50;;;1.80;;
5995;SDS011;3026;53.612;7.278;2023-02-28T02:34:20;8.67;;;1.70;;
5995;SDS011;3026;53.612;7.278;2023-02-28T02:36:53;5.67;;;1.30;;
5995;SDS011;3026;53.612;7.278;2023-02-28T02:39:30;5.17;;;1.23;;
5995;SDS011;3026;53.612;7.278;2023-02-28T02:42:03;6.30;;;1.70;;
5995;SDS011;3026;53.612;7.278;2023-02-28T02:44:40;3.37;;;1.30;;
5995;SDS011;3026;53.612;7.278;2023-02-28T02:47:12;3.40;;;1.33;;
5995;SDS011;3026;53.612;7.278;2023-02-28T02:49:44;5.20;;;1.50;;
5995;SDS011;3026;53.612;7.278;2023-02-28T02:52:16;2.10;;;1.17;;
5995;SDS011;3026;53.612;7.278;2023-02-28T02:54:46;5.30;;;1.50;;
5995;SDS011;3026;53.612;7.278;2023-02-28T02:57:19;5.47;;;1.90;;
5995;SDS011;3026;53.612;7.278;2023-02-28T02:59:51;4.83;;;1.90;;
5995;SDS011;3026;53.612;7.278;2023-02-28T03:02:21;5.87;;;1.33;;
5995;SDS011;3026;53.612;7.278;2023-02-28T03:04:53;3.47;;;1.67;;
5995;SDS011;3026;53.612;7.278;2023-02-28T03:07:26;4.40;;;1.80;;
5995;SDS011;3026;53.612;7.278;2023-02-28T03:09:53;7.83;;;2.90;;
5995;SDS011;3026;53.612;7.278;2023-02-28T03:12:22;6.20;;;3.23;;
5995;SDS011;3026;53.612;7.278;2023-02-28T03:14:55;7.23;;;3.37;;
5995;SDS011;3026;53.612;7.278;2023-02-28T03:17:34;5.13;;;4.13;;
5995;SDS011;3026;53.612;7.278;2023-02-28T03:20:15;6.03;;;4.10;;
5995;SDS011;3026;53.612;7.278;2023-02-28T03:22:55;8.87;;;4.47;;
5995;SDS011;3026;53.612;7.278;2023-02-28T03:25:31;7.13;;;4.90;;
5995;SDS011;3026;53.612;7.278;2023-02-28T03:28:05;7.27;;;5.13;;
5995;SDS011;3026;53.612;7.278;2023-02-28T03:30:41;7.37;;;4.97;;
5995;SDS011;3026;53.612;7.278;2023-02-28T03:33:13;8.03;;;4.83;;
5995;SDS011;3026;53.612;7.278;2023-02-28T03:35:45;7.77;;;5.13;;
5995;SDS011;3026;53.612;7.278;2023-02-28T03:38:19;7.93;;;5.57;;
5995;SDS011;3026;53.612;7.278;2023-02-28T03:40:51;8.17;;;5.57;;
5995;SDS011;3026;53.612;7.278;2023-02-28T03:43:24;8.00;;;5.90;;
5995;SDS011;3026;53.612;7.278;2023-02-28T03:45:55;6.33;;;5.37;;
5995;SDS011;3026;53.612;7.278;2023-02-28T03:48:26;7.47;;;5.77;;
5995;SDS011;3026;53.612;7.278;2023-02-28T03:51:00;7.07;;;5.67;;
5995;SDS011;3026;53.612;7.278;2023-02-28T03:53:30;8.90;;;6.60;;
5995;SDS011;3026;53.612;7.278;2023-02-28T03:56:01;8.97;;;6.13;;
5995;SDS011;3026;53.612;7.278;2023-02-28T03:58:34;8.80;;;6.50;;
5995;SDS011;3026;53.612;7.278;2023-02-28T04:01:07;10.47;;;6.60;;
5995;SDS011;3026;53.612;7.278;2023-02-28T04:03:37;9.80;;;6.37;;
5995;SDS011;3026;53.612;7.278;2023-02-28T04:06:06;9.03;;;6.50;;
5995;SDS011;3026;53.612;7.278;2023-02-28T04:08:39;9.77;;;7.50;;
5995;SDS011;3026;53.612;7.278;2023-02-28T04:11:06;8.53;;;7.13;;
5995;SDS011;3026;53.612;7.278;2023-02-28T04:13:43;9.27;;;7.23;;
5995;SDS011;3026;53.612;7.278;2023-02-28T04:16:10;8.50;;;7.60;;
5995;SDS011;3026;53.612;7.278;2023-02-28T04:18:38;10.00;;;7.43;;
5995;SDS011;3026;53.612;7.278;2023-02-28T04:21:07;8.70;;;7.17;;
5995;SDS011;3026;53.612;7.278;2023-02-28T04:23:34;11.57;;;8.07;;
5995;SDS011;3026;53.612;7.278;2023-02-28T04:26:01;9.93;;;8.13;;
5995;SDS011;3026;53.612;7.278;2023-02-28T04:28:28;8.97;;;8.07;;
5995;SDS011;3026;53.612;7.278;2023-02-28T04:30:55;9.27;;;7.50;;
5995;SDS011;3026;53.612;7.278;2023-02-28T04:33:23;9.47;;;7.60;;
5995;SDS011;3026;53.612;7.278;2023-02-28T04:35:57;10.23;;;7.17;;
5995;SDS011;3026;53.612;7.278;2023-02-28T04:38:26;9.60;;;7.37;;
5995;SDS011;3026;53.612;7.278;2023-02-28T04:40:53;13.13;;;8.13;;
5995;SDS011;3026;53.612;7.278;2023-02-28T04:43:22;10.90;;;7.70;;
5995;SDS011;3026;53.612;7.278;2023-02-28T04:45:49;10.90;;;7.03;;
5995;SDS011;3026;53.612;7.278;2023-02-28T04:48:16;8.73;;;7.23;;
5995;SDS011;3026;53.612;7.278;2023-02-28T04:51:01;10.10;;;7.50;;
5995;SDS011;3026;53.612;7.278;2023-02-28T04:53:31;10.67;;;7.53;;
5995;SDS011;3026;53.612;7.278;2023-02-28T04:56:02;9.37;;;7.50;;
5995;SDS011;3026;53.612;7.278;2023-02-28T04:58:31;9.37;;;6.90;;
5995;SDS011;3026;53.612;7.278;2023-02-28T05:01:01;11.00;;;6.37;;
5995;SDS011;3026;53.612;7.278;2023-02-28T05:03:29;8.70;;;6.83;;
5995;SDS011;3026;53.612;7.278;2023-02-28T05:05:55;9.27;;;5.77;;
5995;SDS011;3026;53.612;7.278;2023-02-28T05:12:11;7.50;;;5.80;;
5995;SDS011;3026;53.612;7.278;2023-02-28T05:14:40;6.87;;;5.60;;
5995;SDS011;3026;53.612;7.278;2023-02-28T05:17:08;7.40;;;5.77;;
5995;SDS011;3026;53.612;7.278;2023-02-28T05:22:50;6.80;;;5.13;;
5995;SDS011;3026;53.612;7.278;2023-02-28T05:25:18;9.17;;;5.33;;
5995;SDS011;3026;53.612;7.278;2023-02-28T05:27:49;7.10;;;5.60;;
5995;SDS011;3026;53.612;7.278;2023-02-28T05:30:16;7.43;;;5.53;;
5995;SDS011;3026;53.612;7.278;2023-02-28T05:32:43;6.40;;;4.77;;
5995;SDS011;3026;53.612;7.278;2023-02-28T05:35:10;7.13;;;5.83;;
5995;SDS011;3026;53.612;7.278;2023-02-28T05:37:37;6.53;;;5.27;;
5995;SDS011;3026;53.612;7.278;2023-02-28T05:40:06;5.80;;;4.90;;
5995;SDS011;3026;53.612;7.278;2023-02-28T05:42:35;6.17;;;4.97;;
5995;SDS011;3026;53.612;7.278;2023-02-28T05:45:04;8.77;;;6.20;;
5995;SDS011;3026;53.612;7.278;2023-02-28T05:47:32;6.67;;;4.70;;
5995;SDS011;3026;53.612;7.278;2023-02-28T05:49:59;5.17;;;4.33;;
5995;SDS011;3026;53.612;7.278;2023-02-28T05:52:26;5.70;;;4.57;;
5995;SDS011;3026;53.612;7.278;2023-02-28T05:54:53;7.90;;;5.13;;
5995;SDS011;3026;53.612;7.278;2023-02-28T05:57:20;7.13;;;5.27;;
5995;SDS011;3026;53.612;7.278;2023-02-28T05:59:47;7.07;;;4.80;;
5995;SDS011;3026;53.612;7.278;2023-02-28T06:02:16;7.53;;;5.17;;
5995;SDS011;3026;53.612;7.278;2023-02-28T06:04:43;9.00;;;4.97;;
5995;SDS011;3026;53.612;7.278;2023-02-28T06:07:10;7.50;;;5.43;;
5995;SDS011;3026;53.612;7.278;2023-02-28T06:09:37;7.33;;;5.10;;
5995;SDS011;3026;53.612;7.278;2023-02-28T06:12:05;6.43;;;4.80;;
5995;SDS011;3026;53.612;7.278;2023-02-28T06:14:35;7.33;;;5.47;;
5995;SDS011;3026;53.612;7.278;2023-02-28T06:17:02;6.60;;;5.10;;
5995;SDS011;3026;53.612;7.278;2023-02-28T06:19:31;7.67;;;5.00;;
5995;SDS011;3026;53.612;7.278;2023-02-28T06:22:01;7.40;;;5.50;;
5995;SDS011;3026;53.612;7.278;2023-02-28T06:24:28;8.20;;;5.97;;
5995;SDS011;3026;53.612;7.278;2023-02-28T06:26:56;7.20;;;5.93;;
5995;SDS011;3026;53.612;7.278;2023-02-28T06:29:24;9.17;;;5.73;;
5995;SDS011;3026;53.612;7.278;2023-02-28T06:31:52;9.37;;;6.57;;
5995;SDS011;3026;53.612;7.278;2023-02-28T06:34:19;12.27;;;7.00;;
5995;SDS011;3026;53.612;7.278;2023-02-28T06:36:49;10.27;;;6.63;;
5995;SDS011;3026;53.612;7.278;2023-02-28T06:39:17;10.57;;;6.90;;
5995;SDS011;3026;53.612;7.278;2023-02-28T06:41:45;12.30;;;7.07;;
5995;SDS011;3026;53.612;7.278;2023-02-28T06:44:14;8.67;;;6.47;;
5995;SDS011;3026;53.612;7.278;2023-02-28T06:46:42;11.53;;;7.07;;
5995;SDS011;3026;53.612;7.278;2023-02-28T06:49:11;10.00;;;7.13;;
5995;SDS011;3026;53.612;7.278;2023-02-28T06:51:40;8.83;;;6.50;;
5995;SDS011;3026;53.612;7.278;2023-02-28T06:54:11;11.83;;;6.97;;
5995;SDS011;3026;53.612;7.278;2023-02-28T06:56:38;10.27;;;6.80;;
5995;SDS011;3026;53.612;7.278;2023-02-28T06:59:05;11.93;;;7.13;;
5995;SDS011;3026;53.612;7.278;2023-02-28T07:01:32;8.50;;;6.20;;
5995;SDS011;3026;53.612;7.278;2023-02-28T07:03:59;8.47;;;5.97;;
5995;SDS011;3026;53.612;7.278;2023-02-28T07:06:27;10.43;;;7.63;;
5995;SDS011;3026;53.612;7.278;2023-02-28T07:08:54;9.50;;;6.80;;
5995;SDS011;3026;53.612;7.278;2023-02-28T07:11:23;10.07;;;6.93;;
5995;SDS011;3026;53.612;7.278;2023-02-28T07:13:52;10.87;;;6.90;;
5995;SDS011;3026;53.612;7.278;2023-02-28T07:16:19;9.57;;;6.77;;
5995;SDS011;3026;53.612;7.278;2023-02-28T07:18:46;11.20;;;6.67;;
5995;SDS011;3026;53.612;7.278;2023-02-28T07:21:13;16.87;;;6.80;;
5995;SDS011;3026;53.612;7.278;2023-02-28T07:23:41;8.37;;;6.57;;
5995;SDS011;3026;53.612;7.278;2023-02-28T07:26:10;11.63;;;6.67;;
5995;SDS011;3026;53.612;7.278;2023-02-28T07:28:41;9.20;;;6.07;;
5995;SDS011;3026;53.612;7.278;2023-02-28T07:31:09;10.23;;;6.70;;
5995;SDS011;3026;53.612;7.278;2023-02-28T07:33:36;12.00;;;7.33;;
5995;SDS011;3026;53.612;7.278;2023-02-28T07:36:04;8.43;;;6.37;;
5995;SDS011;3026;53.612;7.278;2023-02-28T07:38:34;10.77;;;6.63;;
5995;SDS011;3026;53.612;7.278;2023-02-28T07:41:01;7.70;;;5.97;;
5995;SDS011;3026;53.612;7.278;2023-02-28T07:43:30;8.53;;;6.17;;
5995;SDS011;3026;53.612;7.278;2023-02-28T07:46:02;8.40;;;5.53;;
5995;SDS011;3026;53.612;7.278;2023-02-28T07:48:30;9.43;;;5.70;;
5995;SDS011;3026;53.612;7.278;2023-02-28T07:50:58;9.47;;;5.70;;
5995;SDS011;3026;53.612;7.278;2023-02-28T07:53:26;8.53;;;6.10;;
5995;SDS011;3026;53.612;7.278;2023-02-28T07:55:54;9.50;;;6.13;;
5995;SDS011;3026;53.612;7.278;2023-02-28T07:58:22;8.37;;;6.40;;
5995;SDS011;3026;53.612;7.278;2023-02-28T08:00:49;9.80;;;6.13;;
5995;SDS011;3026;53.612;7.278;2023-02-28T08:03:18;8.87;;;6.33;;
5995;SDS011;3026;53.612;7.278;2023-02-28T08:05:46;9.00;;;6.10;;
5995;SDS011;3026;53.612;7.278;2023-02-28T08:08:14;9.23;;;6.57;;
5995;SDS011;3026;53.612;7.278;2023-02-28T08:10:42;12.53;;;7.73;;
5995;SDS011;3026;53.612;7.278;2023-02-28T08:13:09;11.00;;;6.40;;
5995;SDS011;3026;53.612;7.278;2023-02-28T08:15:36;11.20;;;6.40;;
5995;SDS011;3026;53.612;7.278;2023-02-28T08:18:03;9.17;;;6.07;;
5995;SDS011;3026;53.612;7.278;2023-02-28T08:20:32;8.57;;;5.97;;
5995;SDS011;3026;53.612;7.278;2023-02-28T08:22:59;11.70;;;6.53;;
5995;SDS011;3026;53.612;7.278;2023-02-28T08:25:25;8.57;;;5.87;;
5995;SDS011;3026;53.612;7.278;2023-02-28T08:27:52;9.90;;;5.70;;
5995;SDS011;3026;53.612;7.278;2023-02-28T08:30:19;9.47;;;6.90;;
5995;SDS011;3026;53.612;7.278;2023-02-28T08:32:46;10.83;;;6.07;;
5995;SDS011;3026;53.612;7.278;2023-02-28T08:35:13;8.87;;;5.90;;
5995;SDS011;3026;53.612;7.278;2023-02-28T08:37:41;10.67;;;6.33;;
5995;SDS011;3026;53.612;7.278;2023-02-28T08:40:09;11.63;;;5.93;;
5995;SDS011;3026;53.612;7.278;2023-02-28T08:42:38;13.17;;;6.30;;
5995;SDS011;3026;53.612;7.278;2023-02-28T08:45:05;9.43;;;5.80;;
5995;SDS011;3026;53.612;7.278;2023-02-28T08:47:33;11.07;;;6.53;;
5995;SDS011;3026;53.612;7.278;2023-02-28T08:49:59;9.10;;;6.90;;
5995;SDS011;3026;53.612;7.278;2023-02-28T08:52:26;12.10;;;6.40;;
5995;SDS011;3026;53.612;7.278;2023-02-28T08:54:55;10.23;;;6.10;;
5995;SDS011;3026;53.612;7.278;2023-02-28T08:57:22;9.57;;;6.10;;
5995;SDS011;3026;53.612;7.278;2023-02-28T08:59:51;8.30;;;6.30;;
5995;SDS011;3026;53.612;7.278;2023-02-28T09:02:19;10.90;;;5.87;;
5995;SDS011;3026;53.612;7.278;2023-02-28T09:04:46;9.90;;;6.40;;
5995;SDS011;3026;53.612;7.278;2023-02-28T09:07:13;9.37;;;5.77;;
5995;SDS011;3026;53.612;7.278;2023-02-28T09:09:40;7.87;;;5.63;;
5995;SDS011;3026;53.612;7.278;2023-02-28T09:12:20;10.10;;;6.53;;
5995;SDS011;3026;53.612;7.278;2023-02-28T09:14:47;8.97;;;5.97;;
5995;SDS011;3026;53.612;7.278;2023-02-28T09:17:14;8.23;;;5.97;;
5995;SDS011;3026;53.612;7.278;2023-02-28T09:19:41;10.60;;;6.13;;
5995;SDS011;3026;53.612;7.278;2023-02-28T09:22:09;8.93;;;6.23;;
5995;SDS011;3026;53.612;7.278;2023-02-28T09:24:37;7.70;;;5.47;;
5995;SDS011;3026;53.612;7.278;2023-02-28T09:27:04;5.93;;;4.73;;
5995;SDS011;3026;53.612;7.278;2023-02-28T09:29:34;10.03;;;5.87;;
5995;SDS011;3026;53.612;7.278;2023-02-28T09:32:01;9.03;;;5.50;;
5995;SDS011;3026;53.612;7.278;2023-02-28T09:34:30;8.20;;;5.37;;
5995;SDS011;3026;53.612;7.278;2023-02-28T09:36:57;8.77;;;5.57;;
5995;SDS011;3026;53.612;7.278;2023-02-28T09:39:24;7.63;;;5.13;;
5995;SDS011;3026;53.612;7.278;2023-02-28T09:41:54;5.47;;;4.63;;
5995;SDS011;3026;53.612;7.278;2023-02-28T09:44:24;7.80;;;5.43;;
5995;SDS011;3026;53.612;7.278;2023-02-28T09:46:58;8.03;;;5.60;;
5995;SDS011;3026;53.612;7.278;2023-02-28T09:49:33;8.87;;;6.27;;
5995;SDS011;3026;53.612;7.278;2023-02-28T09:52:05;9.40;;;6.93;;
5995;SDS011;3026;53.612;7.278;2023-02-28T09:54:35;10.47;;;5.97;;
5995;SDS011;3026;53.612;7.278;2023-02-28T09:57:05;10.43;;;6.27;;
5995;SDS011;3026;53.612;7.278;2023-02-28T09:59:47;9.63;;;6.63;;
5995;SDS011;3026;53.612;7.278;2023-02-28T10:05:24;7.77;;;5.80;;
5995;SDS011;3026;53.612;7.278;2023-02-28T10:08:02;8.77;;;6.53;;
5995;SDS011;3026;53.612;7.278;2023-02-28T10:10:39;11.20;;;7.10;;
5995;SDS011;3026;53.612;7.278;2023-02-28T10:13:12;10.97;;;6.63;;
5995;SDS011;3026;53.612;7.278;2023-02-28T10:15:46;7.90;;;5.93;;
5995;SDS011;3026;53.612;7.278;2023-02-28T10:18:21;10.07;;;6.30;;
5995;SDS011;3026;53.612;7.278;2023-02-28T10:20:52;11.03;;;6.00;;
5995;SDS011;3026;53.612;7.278;2023-02-28T10:23:23;10.20;;;6.73;;
5995;SDS011;3026;53.612;7.278;2023-02-28T10:25:54;10.73;;;6.60;;
5995;SDS011;3026;53.612;7.278;2023-02-28T10:28:24;7.83;;;5.70;;
5995;SDS011;3026;53.612;7.278;2023-02-28T10:30:53;11.63;;;7.17;;
5995;SDS011;3026;53.612;7.278;2023-02-28T10:33:23;9.07;;;6.00;;
5995;SDS011;3026;53.612;7.278;2023-02-28T10:35:52;9.30;;;6.37;;
5995;SDS011;3026;53.612;7.278;2023-02-28T10:38:21;12.93;;;6.20;;
5995;SDS011;3026;53.612;7.278;2023-02-28T10:40:49;10.33;;;6.80;;
5995;SDS011;3026;53.612;7.278;2023-02-28T10:43:18;8.53;;;6.07;;
5995;SDS011;3026;53.612;7.278;2023-02-28T10:45:55;8.80;;;5.70;;
5995;SDS011;3026;53.612;7.278;2023-02-28T10:48:29;8.57;;;6.17;;
5995;SDS011;3026;53.612;7.278;2023-02-28T10:50:59;8.93;;;6.37;;
5995;SDS011;3026;53.612;7.278;2023-02-28T10:53:34;11.43;;;5.47;;
5995;SDS011;3026;53.612;7.278;2023-02-28T10:56:05;7.70;;;5.60;;
5995;SDS011;3026;53.612;7.278;2023-02-28T10:58:46;12.87;;;6.20;;
5995;SDS011;3026;53.612;7.278;2023-02-28T11:01:16;8.80;;;5.77;;
5995;SDS011;3026;53.612;7.278;2023-02-28T11:03:46;9.47;;;6.17;;
5995;SDS011;3026;53.612;7.278;2023-02-28T11:06:15;6.97;;;5.57;;
5995;SDS011;3026;53.612;7.278;2023-02-28T11:08:48;6.63;;;4.93;;
5995;SDS011;3026;53.612;7.278;2023-02-28T11:11:18;5.63;;;4.40;;
5995;SDS011;3026;53.612;7.278;2023-02-28T11:13:46;6.67;;;5.20;;
5995;SDS011;3026;53.612;7.278;2023-02-28T11:16:16;7.20;;;4.97;;
5995;SDS011;3026;53.612;7.278;2023-02-28T11:18:44;10.03;;;5.60;;
5995;SDS011;3026;53.612;7.278;2023-02-28T11:21:16;7.50;;;4.97;;
5995;SDS011;3026;53.612;7.278;2023-02-28T11:23:47;7.07;;;5.23;;
5995;SDS011;3026;53.612;7.278;2023-02-28T11:29:05;6.33;;;4.97;;
5995;SDS011;3026;53.612;7.278;2023-02-28T11:31:37;8.93;;;5.87;;
5995;SDS011;3026;53.612;7.278;2023-02-28T11:34:20;8.10;;;5.73;;
5995;SDS011;3026;53.612;7.278;2023-02-28T11:36:53;10.17;;;5.73;;
5995;SDS011;3026;53.612;7.278;2023-02-28T11:39:21;9.77;;;6.90;;
5995;SDS011;3026;53.612;7.278;2023-02-28T11:41:53;9.50;;;7.40;;
5995;SDS011;3026;53.612;7.278;2023-02-28T11:44:47;12.23;;;6.57;;
5995;SDS011;3026;53.612;7.278;2023-02-28T11:47:26;9.67;;;6.50;;
5995;SDS011;3026;53.612;7.278;2023-02-28T11:50:04;9.97;;;7.70;;
5995;SDS011;3026;53.612;7.278;2023-02-28T11:52:58;9.77;;;6.13;;
5995;SDS011;3026;53.612;7.278;2023-02-28T11:57:25;12.37;;;6.83;;
5995;SDS011;3026;53.612;7.278;2023-02-28T11:59:45;9.60;;;7.07;;
5995;SDS011;3026;53.612;7.278;2023-02-28T12:02:22;10.83;;;6.33;;
5995;SDS011;3026;53.612;7.278;2023-02-28T12:04:53;10.77;;;7.07;;
5995;SDS011;3026;53.612;7.278;2023-02-28T12:07:33;6.93;;;5.93;;
5995;SDS011;3026;53.612;7.278;2023-02-28T12:10:11;11.03;;;6.77;;
5995;SDS011;3026;53.612;7.278;2023-02-28T12:12:48;12.13;;;7.67;;
5995;SDS011;3026;53.612;7.278;2023-02-28T12:15:32;9.47;;;6.23;;
5995;SDS011;3026;53.612;7.278;2023-02-28T12:18:13;11.97;;;7.43;;
5995;SDS011;3026;53.612;7.278;2023-02-28T12:20:52;10.77;;;7.43;;
5995;SDS011;3026;53.612;7.278;2023-02-28T12:26:34;10.90;;;7.37;;
5995;SDS011;3026;53.612;7.278;2023-02-28T12:29:09;9.37;;;6.93;;
5995;SDS011;3026;53.612;7.278;2023-02-28T12:31:41;7.27;;;5.70;;
5995;SDS011;3026;53.612;7.278;2023-02-28T12:34:15;8.63;;;5.57;;
5995;SDS011;3026;53.612;7.278;2023-02-28T12:36:46;8.83;;;6.17;;
5995;SDS011;3026;53.612;7.278;2023-02-28T12:39:18;10.13;;;6.53;;
5995;SDS011;3026;53.612;7.278;2023-02-28T12:41:51;7.53;;;6.53;;
5995;SDS011;3026;53.612;7.278;2023-02-28T12:44:22;10.27;;;6.37;;
5995;SDS011;3026;53.612;7.278;2023-02-28T12:46:54;10.10;;;7.20;;
5995;SDS011;3026;53.612;7.278;2023-02-28T12:49:25;11.07;;;5.90;;
5995;SDS011;3026;53.612;7.278;2023-02-28T12:51:57;9.47;;;6.20;;
5995;SDS011;3026;53.612;7.278;2023-02-28T12:54:28;11.17;;;6.50;;
5995;SDS011;3026;53.612;7.278;2023-02-28T12:57:01;8.57;;;6.67;;
5995;SDS011;3026;53.612;7.278;2023-02-28T12:59:35;9.27;;;6.53;;
5995;SDS011;3026;53.612;7.278;2023-02-28T13:02:28;7.87;;;6.03;;
5995;SDS011;3026;53.612;7.278;2023-02-28T13:05:21;12.07;;;7.00;;
5995;SDS011;3026;53.612;7.278;2023-02-28T13:08:02;8.73;;;6.07;;
5995;SDS011;3026;53.612;7.278;2023-02-28T13:10:41;8.10;;;5.70;;
5995;SDS011;3026;53.612;7.278;2023-02-28T13:13:13;7.43;;;4.87;;
5995;SDS011;3026;53.612;7.278;2023-02-28T13:15:56;9.90;;;5.90;;
5995;SDS011;3026;53.612;7.278;2023-02-28T13:18:32;5.67;;;5.07;;
5995;SDS011;3026;53.612;7.278;2023-02-28T13:21:03;9.97;;;5.80;;
5995;SDS011;3026;53.612;7.278;2023-02-28T13:29:35;9.00;;;6.27;;
5995;SDS011;3026;53.612;7.278;2023-02-28T13:38:13;8.33;;;6.37;;
5995;SDS011;3026;53.612;7.278;2023-02-28T13:41:09;8.90;;;6.07;;
5995;SDS011;3026;53.612;7.278;2023-02-28T13:44:21;8.07;;;5.30;;
5995;SDS011;3026;53.612;7.278;2023-02-28T13:49:54;8.03;;;6.00;;
5995;SDS011;3026;53.612;7.278;2023-02-28T13:52:43;8.10;;;6.03;;
5995;SDS011;3026;53.612;7.278;2023-02-28T13:55:24;7.77;;;5.73;;
5995;SDS011;3026;53.612;7.278;2023-02-28T13:58:08;8.50;;;5.83;;
5995;SDS011;3026;53.612;7.278;2023-02-28T14:00:51;8.40;;;6.33;;
5995;SDS011;3026;53.612;7.278;2023-02-28T14:03:43;9.23;;;6.03;;
5995;SDS011;3026;53.612;7.278;2023-02-28T14:06:22;8.33;;;5.23;;
5995;SDS011;3026;53.612;7.278;2023-02-28T14:08:53;8.87;;;6.50;;
5995;SDS011;3026;53.612;7.278;2023-02-28T14:11:25;7.07;;;4.90;;
5995;SDS011;3026;53.612;7.278;2023-02-28T14:13:56;7.73;;;5.23;;
5995;SDS011;3026;53.612;7.278;2023-02-28T14:16:24;7.07;;;4.70;;
5995;SDS011;3026;53.612;7.278;2023-02-28T14:18:57;7.07;;;4.77;;
5995;SDS011;3026;53.612;7.278;2023-02-28T14:21:29;7.67;;;5.00;;
5995;SDS011;3026;53.612;7.278;2023-02-28T14:27:21;7.10;;;5.00;;
5995;SDS011;3026;53.612;7.278;2023-02-28T14:32:51;8.17;;;4.33;;
5995;SDS011;3026;53.612;7.278;2023-02-28T14:35:35;6.23;;;4.47;;
5995;SDS011;3026;53.612;7.278;2023-02-28T14:38:14;5.30;;;4.80;;
5995;SDS011;3026;53.612;7.278;2023-02-28T14:40:46;7.43;;;5.37;;
5995;SDS011;3026;53.612;7.278;2023-02-28T14:43:18;8.10;;;5.30;;
5995;SDS011;3026;53.612;7.278;2023-02-28T14:45:49;6.63;;;5.03;;
5995;SDS011;3026;53.612;7.278;2023-02-28T14:48:17;9.83;;;5.00;;
5995;SDS011;3026;53.612;7.278;2023-02-28T14:50:50;7.60;;;5.10;;
5995;SDS011;3026;53.612;7.278;2023-02-28T14:53:21;9.40;;;4.93;;
5995;SDS011;3026;53.612;7.278;2023-02-28T14:55:49;6.97;;;5.07;;
5995;SDS011;3026;53.612;7.278;2023-02-28T14:58:27;7.57;;;4.93;;
5995;SDS011;3026;53.612;7.278;2023-02-28T15:00:56;8.00;;;4.83;;
5995;SDS011;3026;53.612;7.278;2023-02-28T15:03:29;6.00;;;4.90;;
5995;SDS011;3026;53.612;7.278;2023-02-28T15:06:00;6.20;;;4.57;;
5995;SDS011;3026;53.612;7.278;2023-02-28T15:08:28;7.27;;;5.00;;
5995;SDS011;3026;53.612;7.278;2023-02-28T15:11:00;8.07;;;5.13;;
5995;SDS011;3026;53.612;7.278;2023-02-28T15:13:33;5.27;;;4.43;;
5995;SDS011;3026;53.612;7.278;2023-02-28T15:16:04;7.17;;;4.80;;
5995;SDS011;3026;53.612;7.278;2023-02-28T15:18:38;5.63;;;4.70;;
5995;SDS011;3026;53.612;7.278;2023-02-28T15:21:15;5.33;;;4.60;;
5995;SDS011;3026;53.612;7.278;2023-02-28T15:23:45;6.03;;;4.83;;
5995;SDS011;3026;53.612;7.278;2023-02-28T15:26:15;7.47;;;5.00;;
5995;SDS011;3026;53.612;7.278;2023-02-28T15:28:45;7.30;;;4.97;;
5995;SDS011;3026;53.612;7.278;2023-02-28T15:31:20;9.23;;;4.57;;
5995;SDS011;3026;53.612;7.278;2023-02-28T15:33:53;5.90;;;5.20;;
5995;SDS011;3026;53.612;7.278;2023-02-28T15:36:26;7.63;;;4.97;;
5995;SDS011;3026;53.612;7.278;2023-02-28T15:38:56;7.27;;;4.87;;
5995;SDS011;3026;53.612;7.278;2023-02-28T15:41:24;6.13;;;4.63;;
5995;SDS011;3026;53.612;7.278;2023-02-28T15:46:43;4.83;;;4.20;;
5995;SDS011;3026;53.612;7.278;2023-02-28T15:49:20;7.37;;;5.00;;
5995;SDS011;3026;53.612;7.278;2023-02-28T15:51:50;7.20;;;5.67;;
5995;SDS011;3026;53.612;7.278;2023-02-28T15:54:20;12.47;;;5.73;;
5995;SDS011;3026;53.612;7.278;2023-02-28T15:56:52;7.20;;;4.93;;
5995;SDS011;3026;53.612;7.278;2023-02-28T15:59:22;7.03;;;5.00;;
5995;SDS011;3026;53.612;7.278;2023-02-28T16:05:00;10.10;;;4.90;;
5995;SDS011;3026;53.612;7.278;2023-02-28T16:07:40;5.73;;;5.13;;
5995;SDS011;3026;53.612;7.278;2023-02-28T16:10:10;6.93;;;4.63;;
5995;SDS011;3026;53.612;7.278;2023-02-28T16:12:39;5.93;;;4.40;;
5995;SDS011;3026;53.612;7.278;2023-02-28T16:15:07;7.67;;;4.43;;
5995;SDS011;3026;53.612;7.278;2023-02-28T16:17:41;6.63;;;4.90;;
5995;SDS011;3026;53.612;7.278;2023-02-28T16:20:12;8.10;;;4.97;;
5995;SDS011;3026;53.612;7.278;2023-02-28T16:22:42;6.57;;;5.53;;
5995;SDS011;3026;53.612;7.278;2023-02-28T16:25:10;11.67;;;5.27;;
5995;SDS011;3026;53.612;7.278;2023-02-28T16:27:38;7.67;;;5.13;;